createdAt,value
2023-04-30T00:04:53.645Z,10.51
2023-04-30T00:09:55.215Z,10.47
2023-04-30T00:14:56.488Z,10.49
2023-04-30T00:19:57.785Z,10.55
2023-04-30T00:24:59.276Z,10.53
2023-04-30T00:30:00.330Z,10.51
2023-04-30T00:35:01.775Z,10.50
2023-04-30T00:40:03.849Z,10.48
2023-04-30T00:45:08.366Z,10.45
2023-04-30T00:50:09.764Z,10.41
2023-04-30T00:55:11.930Z,10.36
2023-04-30T01:00:14.590Z,10.30
2023-04-30T01:05:18.877Z,10.27
2023-04-30T01:10:22.925Z,10.21
2023-04-30T01:15:42.773Z,10.12
2023-04-30T01:20:53.983Z,10.09
2023-04-30T01:26:14.908Z,10.09
2023-04-30T01:31:18.885Z,10.01
2023-04-30T01:36:32.443Z,9.95
2023-04-30T01:41:42.353Z,9.91
2023-04-30T01:46:53.360Z,9.93
2023-04-30T01:52:14.253Z,9.94
2023-04-30T01:57:28.478Z,9.87
2023-04-30T02:02:30.221Z,9.86
2023-04-30T02:07:44.378Z,9.82
2023-04-30T02:12:45.378Z,9.71
2023-04-30T02:17:46.576Z,9.55
2023-04-30T02:22:47.850Z,9.23
2023-04-30T02:27:50.707Z,8.83
2023-04-30T02:32:51.696Z,8.61
2023-04-30T02:37:52.751Z,8.43
2023-04-30T02:42:56.021Z,8.28
2023-04-30T02:47:57.117Z,8.20
2023-04-30T02:52:58.401Z,8.16
2023-04-30T02:57:59.751Z,8.07
2023-04-30T03:03:00.848Z,7.88
2023-04-30T03:08:01.927Z,7.69
2023-04-30T03:13:03.058Z,7.65
2023-04-30T03:18:04.575Z,7.66
2023-04-30T03:23:06.244Z,7.69
2023-04-30T03:28:07.197Z,7.72
2023-04-30T03:33:08.430Z,7.73
2023-04-30T03:38:09.535Z,7.74
2023-04-30T03:43:11.565Z,7.74
2023-04-30T03:48:12.688Z,7.74
2023-04-30T03:53:14.127Z,7.73
2023-04-30T03:58:15.445Z,7.72
2023-04-30T04:03:16.852Z,7.70
2023-04-30T04:08:18.109Z,7.68
2023-04-30T04:13:19.099Z,7.67
2023-04-30T04:18:20.165Z,7.64
2023-04-30T04:23:22.031Z,7.65
2023-04-30T04:28:23.142Z,7.62
2023-04-30T04:33:24.281Z,7.61
2023-04-30T04:38:25.768Z,7.64
2023-04-30T04:43:27.003Z,7.64
2023-04-30T04:48:28.092Z,7.68
2023-04-30T04:53:30.220Z,7.71
2023-04-30T04:58:32.151Z,7.78
2023-04-30T05:03:36.416Z,7.80
2023-04-30T05:08:37.687Z,7.84
2023-04-30T05:13:38.673Z,7.88
2023-04-30T05:18:39.719Z,7.88
2023-04-30T05:23:40.710Z,7.92
2023-04-30T05:28:45.003Z,7.97
2023-04-30T05:33:49.287Z,8.06
2023-04-30T05:38:50.962Z,8.16
2023-04-30T05:43:51.931Z,8.30
2023-04-30T05:48:52.947Z,8.51
2023-04-30T05:53:54.035Z,8.63
2023-04-30T05:58:55.050Z,8.81
2023-04-30T06:03:56.178Z,9.09
2023-04-30T06:08:57.280Z,9.38
2023-04-30T06:13:58.605Z,9.68
2023-04-30T06:18:59.574Z,9.76
2023-04-30T06:24:00.621Z,9.82
2023-04-30T06:29:01.681Z,10.01
2023-04-30T06:34:02.863Z,10.24
2023-04-30T06:39:04.564Z,10.49
2023-04-30T06:44:05.689Z,10.60
2023-04-30T06:49:06.876Z,10.64
2023-04-30T06:54:07.982Z,10.63
2023-04-30T06:59:09.566Z,10.52
2023-04-30T07:04:11.349Z,10.47
2023-04-30T07:09:15.022Z,10.60
2023-04-30T07:14:15.995Z,10.71
2023-04-30T07:19:16.968Z,10.83
2023-04-30T07:24:17.938Z,10.89
2023-04-30T07:29:18.980Z,10.88
2023-04-30T07:34:23.053Z,11.06
2023-04-30T07:39:24.267Z,11.26
2023-04-30T07:44:25.233Z,11.46
2023-04-30T07:49:26.200Z,11.68
2023-04-30T07:54:27.506Z,11.90
2023-04-30T07:59:28.514Z,12.22
2023-04-30T08:04:29.672Z,12.63
2023-04-30T08:09:30.770Z,12.71
2023-04-30T08:14:32.348Z,12.66
2023-04-30T08:19:33.325Z,12.79
2023-04-30T08:24:34.379Z,13.10
2023-04-30T08:29:35.403Z,13.12
2023-04-30T08:34:36.628Z,13.01
2023-04-30T08:39:37.589Z,12.74
2023-04-30T08:44:41.575Z,12.86
2023-04-30T08:49:43.094Z,12.99
2023-04-30T08:54:46.795Z,13.15
2023-04-30T08:59:48.087Z,13.22
2023-04-30T09:04:52.538Z,13.22
2023-04-30T09:09:57.533Z,13.20
2023-04-30T09:15:01.811Z,13.17
2023-04-30T09:20:22.620Z,13.11
2023-04-30T09:25:38.583Z,13.41
2023-04-30T09:30:40.536Z,13.50
2023-04-30T09:35:42.045Z,13.21
2023-04-30T09:40:44.452Z,13.51
2023-04-30T09:45:48.333Z,13.55
2023-04-30T09:50:50.666Z,13.49
2023-04-30T09:55:51.987Z,13.41
2023-04-30T10:00:56.562Z,13.67
2023-04-30T10:05:58.858Z,13.97
2023-04-30T10:11:04.738Z,14.05
2023-04-30T10:16:23.855Z,14.24
2023-04-30T10:21:27.401Z,14.63
2023-04-30T10:26:29.394Z,14.88
2023-04-30T10:31:35.386Z,14.86
2023-04-30T10:36:41.738Z,14.80
2023-04-30T10:41:46.420Z,14.68
2023-04-30T10:46:48.354Z,14.68
2023-04-30T10:51:51.245Z,14.57
2023-04-30T10:56:52.481Z,14.68
2023-04-30T11:01:55.787Z,14.83
2023-04-30T11:07:08.839Z,14.89
2023-04-30T11:12:27.708Z,14.93
2023-04-30T11:17:29.133Z,14.98
2023-04-30T11:22:35.150Z,14.81
2023-04-30T11:27:40.081Z,14.83
2023-04-30T11:32:45.453Z,14.88
2023-04-30T11:37:48.064Z,14.85
2023-04-30T11:42:49.088Z,14.83
2023-04-30T11:47:52.036Z,14.87
2023-04-30T11:52:54.699Z,15.01
2023-04-30T11:57:58.005Z,15.03
2023-04-30T12:03:00.878Z,15.02
2023-04-30T12:08:12.317Z,14.98
2023-04-30T12:13:14.332Z,14.92
2023-04-30T12:18:15.521Z,14.95
2023-04-30T12:23:16.629Z,15.28
2023-04-30T12:28:17.729Z,15.57
2023-04-30T12:33:19.056Z,15.59
2023-04-30T12:38:22.650Z,15.85
2023-04-30T12:43:23.685Z,15.83
2023-04-30T12:48:25.545Z,15.85
2023-04-30T12:53:28.372Z,15.82
2023-04-30T12:58:30.506Z,16.10
2023-04-30T13:03:31.737Z,16.42
2023-04-30T13:08:37.323Z,16.75
2023-04-30T13:13:47.215Z,16.97
2023-04-30T13:18:48.264Z,16.95
2023-04-30T13:23:53.613Z,16.86
2023-04-30T13:28:56.499Z,17.01
2023-04-30T13:33:57.651Z,16.84
2023-04-30T13:38:59.275Z,16.78
2023-04-30T13:44:00.278Z,16.35
2023-04-30T13:49:02.115Z,16.58
2023-04-30T13:54:03.253Z,16.83
2023-04-30T13:59:04.593Z,16.80
2023-04-30T14:04:05.596Z,17.03
2023-04-30T14:09:06.842Z,16.89
2023-04-30T14:14:08.542Z,16.57
2023-04-30T14:19:10.431Z,17.02
2023-04-30T14:24:15.387Z,16.94
2023-04-30T14:29:18.508Z,16.75
2023-04-30T14:34:20.873Z,16.44
2023-04-30T14:39:21.906Z,16.38
2023-04-30T14:44:26.260Z,16.49
2023-04-30T14:49:27.848Z,16.65
2023-04-30T14:54:29.103Z,16.70
2023-04-30T14:59:30.912Z,16.71
2023-04-30T15:04:31.970Z,16.63
2023-04-30T15:09:32.975Z,16.52
2023-04-30T15:14:33.970Z,16.52
2023-04-30T15:19:34.997Z,16.54
2023-04-30T15:24:36.315Z,16.44
2023-04-30T15:29:39.620Z,16.36
2023-04-30T15:34:40.556Z,16.29
2023-04-30T15:39:41.545Z,16.16
2023-04-30T15:44:42.519Z,16.33
2023-04-30T15:49:43.838Z,16.28
2023-04-30T15:54:44.829Z,16.26
2023-04-30T15:59:45.928Z,16.10
2023-04-30T16:04:47.514Z,16.03
2023-04-30T16:09:49.026Z,16.04
2023-04-30T16:14:50.584Z,15.95
2023-04-30T16:19:51.548Z,15.83
2023-04-30T16:24:53.396Z,15.70
2023-04-30T16:29:54.586Z,15.64
2023-04-30T16:34:55.659Z,15.58
2023-04-30T16:39:57.131Z,15.53
2023-04-30T16:44:58.687Z,15.41
2023-04-30T16:49:59.813Z,15.25
2023-04-30T16:55:01.742Z,15.15
2023-04-30T17:00:05.775Z,15.09
2023-04-30T17:05:08.918Z,14.91
2023-04-30T17:10:10.764Z,14.67
2023-04-30T17:15:12.041Z,14.40
2023-04-30T17:20:13.029Z,14.14
2023-04-30T17:25:14.581Z,13.86
2023-04-30T17:30:15.972Z,13.57
2023-04-30T17:35:17.041Z,13.31
2023-04-30T17:40:18.051Z,13.02
2023-04-30T17:45:19.280Z,12.72
2023-04-30T17:50:20.486Z,12.39
2023-04-30T17:55:23.017Z,12.05
2023-04-30T18:00:24.428Z,11.68
2023-04-30T18:05:25.528Z,11.35
2023-04-30T18:10:26.907Z,11.05
2023-04-30T18:15:28.630Z,10.76
2023-04-30T18:20:29.763Z,10.49
2023-04-30T18:25:31.253Z,10.21
2023-04-30T18:30:34.105Z,9.93
2023-04-30T18:35:36.167Z,9.70
2023-04-30T18:40:37.733Z,9.49
2023-04-30T18:45:38.866Z,9.28
2023-04-30T18:50:42.552Z,9.09
2023-04-30T18:55:45.532Z,8.91
2023-04-30T19:00:57.326Z,8.78
2023-04-30T19:05:58.928Z,8.65
2023-04-30T19:11:00.277Z,8.51
2023-04-30T19:16:01.697Z,8.35
2023-04-30T19:21:04.615Z,8.20
2023-04-30T19:26:11.401Z,8.05
2023-04-30T19:31:12.573Z,7.87
2023-04-30T19:36:14.002Z,7.70
2023-04-30T19:41:15.031Z,7.55
2023-04-30T19:46:16.259Z,7.41
2023-04-30T19:51:18.058Z,7.28
2023-04-30T19:56:20.441Z,7.17
2023-04-30T20:01:21.608Z,7.06
2023-04-30T20:06:22.767Z,6.97
2023-04-30T20:11:24.023Z,6.86
2023-04-30T20:16:25.158Z,6.79
2023-04-30T20:21:27.114Z,6.70
2023-04-30T20:26:28.523Z,6.61
2023-04-30T20:31:30.527Z,6.51
2023-04-30T20:36:31.822Z,6.40
2023-04-30T20:41:32.828Z,6.30
2023-04-30T20:46:33.922Z,6.21
2023-04-30T20:51:37.855Z,6.10
2023-04-30T20:56:38.977Z,6.00
2023-04-30T21:01:40.400Z,5.90
2023-04-30T21:06:42.005Z,5.80
2023-04-30T21:11:43.787Z,5.71
2023-04-30T21:16:46.096Z,5.60
2023-04-30T21:21:47.209Z,5.49
2023-04-30T21:26:48.394Z,5.40
2023-04-30T21:31:49.401Z,5.35
2023-04-30T21:36:51.222Z,5.34
2023-04-30T21:41:52.958Z,5.29
2023-04-30T21:46:59.498Z,5.26
2023-04-30T21:52:03.812Z,5.17
2023-04-30T21:57:05.242Z,5.03
2023-04-30T22:02:19.978Z,4.89
2023-04-30T22:07:24.178Z,4.68
2023-04-30T22:12:25.522Z,4.46
2023-04-30T22:17:30.037Z,4.22
2023-04-30T22:22:31.467Z,3.98
2023-04-30T22:27:32.478Z,3.76
2023-04-30T22:32:34.048Z,3.57
2023-04-30T22:37:38.021Z,3.38
2023-04-30T22:42:40.524Z,3.24
2023-04-30T22:47:41.753Z,3.16
2023-04-30T22:52:42.848Z,3.13
2023-04-30T22:57:43.817Z,3.16
2023-04-30T23:02:44.960Z,3.14
2023-04-30T23:07:48.669Z,3.05
2023-04-30T23:12:54.767Z,2.93
2023-04-30T23:17:57.542Z,2.79
2023-04-30T23:22:58.612Z,2.63
2023-04-30T23:28:00.497Z,2.47
2023-04-30T23:33:01.892Z,2.41
2023-04-30T23:38:04.273Z,2.42
2023-04-30T23:43:06.353Z,2.46
2023-04-30T23:48:09.729Z,2.47
2023-04-30T23:53:10.772Z,2.41
2023-04-30T23:58:12.183Z,2.28
